sensor_id;sensor_type;location;lat;lon;timestamp;pressure;altitude;pressure_sealevel;temperature;humidity
75923;BME280;64602;47.542;19.090;2023-02-12T06:26:24;101912.75;;;2.65;84.33
75923;BME280;64602;47.542;19.090;2023-02-12T06:31:29;101910.38;;;2.62;84.28
75923;BME280;64602;47.542;19.090;2023-02-12T06:36:32;101924.63;;;2.62;83.83
75923;BME280;64602;47.542;19.090;2023-02-12T06:41:34;101907.53;;;2.55;83.53
75923;BME280;64602;47.542;19.090;2023-02-12T06:46:36;101940.59;;;2.72;83.69
75923;BME280;64602;47.542;19.090;2023-02-12T06:51:38;101930.69;;;2.72;83.52
75923;BME280;64602;47.542;19.090;2023-02-12T06:56:42;101947.47;;;2.83;83.21
75923;BME280;64602;47.542;19.090;2023-02-12T07:01:44;101954.41;;;3.02;83.15
75923;BME280;64602;47.542;19.090;2023-02-12T07:06:46;101968.66;;;3.10;82.71
75923;BME280;64602;47.542;19.090;2023-02-12T07:11:49;101969.69;;;3.17;82.05
75923;BME280;64602;47.542;19.090;2023-02-12T07:16:51;101990.03;;;3.45;81.72
75923;BME280;64602;47.542;19.090;2023-02-12T07:21:53;101975.81;;;3.60;81.27
75923;BME280;64602;47.542;19.090;2023-02-12T07:26:55;102004.00;;;3.97;80.70
75923;BME280;64602;47.542;19.090;2023-02-12T07:31:57;101998.63;;;4.14;79.96
75923;BME280;64602;47.542;19.090;2023-02-12T07:36:59;102026.97;;;4.41;79.38
75923;BME280;64602;47.542;19.090;2023-02-12T07:42:01;102002.72;;;4.49;78.96
75923;BME280;64602;47.542;19.090;2023-02-12T07:47:04;102014.09;;;4.76;78.28
75923;BME280;64602;47.542;19.090;2023-02-12T07:52:06;102022.41;;;5.05;77.21
75923;BME280;64602;47.542;19.090;2023-02-12T07:57:09;102028.91;;;5.42;76.23
75923;BME280;64602;47.542;19.090;2023-02-12T08:02:11;102034.50;;;5.87;75.10
75923;BME280;64602;47.542;19.090;2023-02-12T08:07:13;102035.47;;;6.17;73.58
75923;BME280;64602;47.542;19.090;2023-02-12T08:12:16;102034.47;;;6.48;72.63
75923;BME280;64602;47.542;19.090;2023-02-12T08:17:18;102027.91;;;6.80;71.44
75923;BME280;64602;47.542;19.090;2023-02-12T08:22:20;102039.91;;;7.07;70.44
75923;BME280;64602;47.542;19.090;2023-02-12T08:27:22;102055.94;;;7.30;69.26
75923;BME280;64602;47.542;19.090;2023-02-12T08:32:25;102047.63;;;7.46;68.41
75923;BME280;64602;47.542;19.090;2023-02-12T08:37:27;102066.00;;;7.73;67.61
75923;BME280;64602;47.542;19.090;2023-02-12T08:42:29;102077.00;;;7.92;67.06
75923;BME280;64602;47.542;19.090;2023-02-12T08:47:31;102060.28;;;8.04;66.17
75923;BME280;64602;47.542;19.090;2023-02-12T08:52:34;102066.25;;;8.21;65.11
75923;BME280;64602;47.542;19.090;2023-02-12T08:57:36;102063.66;;;8.34;64.40
75923;BME280;64602;47.542;19.090;2023-02-12T09:02:38;102079.09;;;8.62;64.12
75923;BME280;64602;47.542;19.090;2023-02-12T09:07:40;102089.59;;;8.78;62.78
75923;BME280;64602;47.542;19.090;2023-02-12T09:12:42;102104.13;;;9.05;61.56
75923;BME280;64602;47.542;19.090;2023-02-12T09:17:44;102110.47;;;9.19;60.28
75923;BME280;64602;47.542;19.090;2023-02-12T09:22:46;102108.44;;;9.34;59.48
75923;BME280;64602;47.542;19.090;2023-02-12T09:27:48;102124.03;;;9.67;58.63
75923;BME280;64602;47.542;19.090;2023-02-12T09:32:51;102128.47;;;9.88;57.73
75923;BME280;64602;47.542;19.090;2023-02-12T09:37:53;102122.19;;;9.81;56.88
75923;BME280;64602;47.542;19.090;2023-02-12T09:43:16;102138.06;;;9.84;56.27
75923;BME280;64602;47.542;19.090;2023-02-12T09:54:05;102142.16;;;10.35;55.30
75923;BME280;64602;47.542;19.090;2023-02-12T09:59:08;102140.47;;;10.60;53.95
75923;BME280;64602;47.542;19.090;2023-02-12T10:04:11;102141.72;;;10.98;53.56
75923;BME280;64602;47.542;19.090;2023-02-12T10:09:26;102143.50;;;11.30;52.56
75923;BME280;64602;47.542;19.090;2023-02-12T10:35:50;102183.13;;;17.44;37.77
75923;BME280;64602;47.542;19.090;2023-02-12T10:40:55;102195.91;;;22.65;29.51
75923;BME280;64602;47.542;19.090;2023-02-12T10:46:02;102190.22;;;19.98;31.92
75923;BME280;64602;47.542;19.090;2023-02-12T10:56:18;102194.25;;;27.21;22.24
75923;BME280;64602;47.542;19.090;2023-02-12T11:01:37;102195.28;;;30.81;18.02
75923;BME280;64602;47.542;19.090;2023-02-12T11:06:56;102196.13;;;34.23;15.09
75923;BME280;64602;47.542;19.090;2023-02-12T11:11:58;102172.59;;;31.32;16.11
75923;BME280;64602;47.542;19.090;2023-02-12T11:17:01;102167.50;;;21.60;26.66
75923;BME280;64602;47.542;19.090;2023-02-12T11:22:06;102149.13;;;18.17;31.19
75923;BME280;64602;47.542;19.090;2023-02-12T11:27:20;102139.38;;;15.97;34.73
75923;BME280;64602;47.542;19.090;2023-02-12T11:32:23;102159.06;;;15.30;36.03
75923;BME280;64602;47.542;19.090;2023-02-12T11:37:25;102150.31;;;16.60;34.18
75923;BME280;64602;47.542;19.090;2023-02-12T11:42:31;102185.56;;;25.74;22.53
75923;BME280;64602;47.542;19.090;2023-02-12T11:47:35;102166.88;;;20.83;27.89
75923;BME280;64602;47.542;19.090;2023-02-12T11:52:41;102162.50;;;18.35;31.54
75923;BME280;64602;47.542;19.090;2023-02-12T11:57:44;102165.69;;;18.86;30.17
75923;BME280;64602;47.542;19.090;2023-02-12T12:03:11;102155.41;;;15.65;35.20
75923;BME280;64602;47.542;19.090;2023-02-12T12:08:23;102137.22;;;13.87;39.43
75923;BME280;64602;47.542;19.090;2023-02-12T12:13:34;102145.97;;;13.04;41.46
75923;BME280;64602;47.542;19.090;2023-02-12T12:18:46;102137.63;;;13.91;39.41
75923;BME280;64602;47.542;19.090;2023-02-12T12:24:13;102121.75;;;13.14;41.18
75923;BME280;64602;47.542;19.090;2023-02-12T12:29:21;102131.53;;;12.78;42.38
75923;BME280;64602;47.542;19.090;2023-02-12T12:34:26;102135.28;;;12.59;42.62
75923;BME280;64602;47.542;19.090;2023-02-12T12:45:01;102119.41;;;11.99;43.75
75923;BME280;64602;47.542;19.090;2023-02-12T13:16:42;102139.44;;;12.36;45.28
75923;BME280;64602;47.542;19.090;2023-02-12T13:21:59;102140.53;;;12.29;45.43
75923;BME280;64602;47.542;19.090;2023-02-12T13:27:07;102142.56;;;13.09;44.01
75923;BME280;64602;47.542;19.090;2023-02-12T13:32:23;102133.75;;;13.50;42.30
75923;BME280;64602;47.542;19.090;2023-02-12T13:37:41;102155.31;;;12.39;44.75
75923;BME280;64602;47.542;19.090;2023-02-12T13:53:44;102156.44;;;11.48;47.34
75923;BME280;64602;47.542;19.090;2023-02-12T13:58:51;102156.88;;;11.97;46.53
75923;BME280;64602;47.542;19.090;2023-02-12T14:03:53;102159.75;;;11.50;47.08
75923;BME280;64602;47.542;19.090;2023-02-12T14:09:09;102158.22;;;11.03;48.07
75923;BME280;64602;47.542;19.090;2023-02-12T14:14:12;102145.69;;;10.95;48.82
75923;BME280;64602;47.542;19.090;2023-02-12T14:19:37;102154.66;;;10.82;48.95
75923;BME280;64602;47.542;19.090;2023-02-12T14:24:47;102168.47;;;10.81;49.02
75923;BME280;64602;47.542;19.090;2023-02-12T14:45:35;102183.63;;;10.15;50.85
75923;BME280;64602;47.542;19.090;2023-02-12T14:50:42;102171.84;;;9.81;51.46
75923;BME280;64602;47.542;19.090;2023-02-12T14:55:51;102168.41;;;9.59;52.20
75923;BME280;64602;47.542;19.090;2023-02-12T15:00:55;102185.41;;;9.40;52.69
75923;BME280;64602;47.542;19.090;2023-02-12T15:06:02;102170.28;;;9.17;53.30
75923;BME280;64602;47.542;19.090;2023-02-12T15:21:50;102180.94;;;8.91;54.01
75923;BME280;64602;47.542;19.090;2023-02-12T15:26:58;102192.97;;;9.16;53.37
75923;BME280;64602;47.542;19.090;2023-02-12T15:32:06;102191.25;;;9.09;53.62
75923;BME280;64602;47.542;19.090;2023-02-12T15:37:18;102191.69;;;9.12;53.58
75923;BME280;64602;47.542;19.090;2023-02-12T15:42:30;102178.59;;;8.88;53.78
75923;BME280;64602;47.542;19.090;2023-02-12T15:47:33;102178.03;;;8.43;54.98
75923;BME280;64602;47.542;19.090;2023-02-12T15:52:39;102195.16;;;8.13;55.93
75923;BME280;64602;47.542;19.090;2023-02-12T15:57:47;102188.72;;;7.78;56.36
75923;BME280;64602;47.542;19.090;2023-02-12T16:02:53;102205.63;;;7.65;57.14
75923;BME280;64602;47.542;19.090;2023-02-12T16:07:55;102209.44;;;7.41;57.66
75923;BME280;64602;47.542;19.090;2023-02-12T16:12:57;102220.53;;;7.32;58.12
75923;BME280;64602;47.542;19.090;2023-02-12T16:17:59;102234.00;;;7.17;58.63
75923;BME280;64602;47.542;19.090;2023-02-12T16:23:05;102250.84;;;7.04;59.01
75923;BME280;64602;47.542;19.090;2023-02-12T16:28:16;102228.91;;;6.84;59.37
75923;BME280;64602;47.542;19.090;2023-02-12T16:38:50;102254.22;;;6.60;60.44
75923;BME280;64602;47.542;19.090;2023-02-12T16:48:56;102266.06;;;6.28;61.96
75923;BME280;64602;47.542;19.090;2023-02-12T16:54:03;102266.44;;;6.16;62.08
75923;BME280;64602;47.542;19.090;2023-02-12T16:59:06;102271.94;;;5.92;62.96
75923;BME280;64602;47.542;19.090;2023-02-12T17:04:13;102270.50;;;5.65;63.96
75923;BME280;64602;47.542;19.090;2023-02-12T17:09:17;102294.59;;;5.58;64.68
75923;BME280;64602;47.542;19.090;2023-02-12T17:14:19;102300.84;;;5.50;65.33
75923;BME280;64602;47.542;19.090;2023-02-12T17:19:21;102279.88;;;5.29;65.98
75923;BME280;64602;47.542;19.090;2023-02-12T17:24:29;102290.31;;;5.24;65.97
75923;BME280;64602;47.542;19.090;2023-02-12T17:29:31;102280.22;;;5.02;66.37
75923;BME280;64602;47.542;19.090;2023-02-12T17:34:33;102308.66;;;5.12;66.55
75923;BME280;64602;47.542;19.090;2023-02-12T17:39:50;102300.22;;;5.24;66.44
75923;BME280;64602;47.542;19.090;2023-02-12T17:44:52;102299.88;;;5.02;67.02
75923;BME280;64602;47.542;19.090;2023-02-12T17:49:54;102308.13;;;4.84;67.72
75923;BME280;64602;47.542;19.090;2023-02-12T17:54:57;102310.25;;;4.56;68.04
75923;BME280;64602;47.542;19.090;2023-02-12T17:59:59;102320.50;;;4.53;69.06
75923;BME280;64602;47.542;19.090;2023-02-12T18:05:01;102305.84;;;4.31;69.25
75923;BME280;64602;47.542;19.090;2023-02-12T18:10:04;102318.78;;;4.35;69.59
75923;BME280;64602;47.542;19.090;2023-02-12T18:15:08;102326.28;;;4.15;70.02
75923;BME280;64602;47.542;19.090;2023-02-12T18:20:11;102312.41;;;3.94;70.78
75923;BME280;64602;47.542;19.090;2023-02-12T18:25:13;102328.31;;;3.87;71.26
75923;BME280;64602;47.542;19.090;2023-02-12T18:30:15;102344.91;;;3.82;71.40
75923;BME280;64602;47.542;19.090;2023-02-12T18:35:18;102327.16;;;3.63;71.83
75923;BME280;64602;47.542;19.090;2023-02-12T18:40:20;102330.16;;;3.52;71.94
75923;BME280;64602;47.542;19.090;2023-02-12T18:45:23;102340.97;;;3.42;72.25
75923;BME280;64602;47.542;19.090;2023-02-12T18:50:25;102337.06;;;3.37;72.00
75923;BME280;64602;47.542;19.090;2023-02-12T18:55:27;102337.84;;;3.29;72.71
75923;BME280;64602;47.542;19.090;2023-02-12T19:00:29;102342.41;;;3.11;72.99
75923;BME280;64602;47.542;19.090;2023-02-12T19:05:31;102350.12;;;3.14;72.63
75923;BME280;64602;47.542;19.090;2023-02-12T19:10:37;102354.81;;;2.94;73.16
75923;BME280;64602;47.542;19.090;2023-02-12T19:15:39;102354.41;;;2.89;73.45
75923;BME280;64602;47.542;19.090;2023-02-12T19:20:42;102372.44;;;2.96;73.56
75923;BME280;64602;47.542;19.090;2023-02-12T19:25:44;102351.66;;;2.81;73.85
75923;BME280;64602;47.542;19.090;2023-02-12T19:30:46;102365.37;;;2.77;74.49
75923;BME280;64602;47.542;19.090;2023-02-12T19:35:49;102374.41;;;2.76;74.78
75923;BME280;64602;47.542;19.090;2023-02-12T19:41:03;102382.63;;;2.75;74.92
75923;BME280;64602;47.542;19.090;2023-02-12T19:46:08;102376.31;;;2.66;75.20
75923;BME280;64602;47.542;19.090;2023-02-12T19:51:16;102390.62;;;2.57;75.37
75923;BME280;64602;47.542;19.090;2023-02-12T19:56:18;102384.03;;;2.51;75.65
75923;BME280;64602;47.542;19.090;2023-02-12T20:01:21;102392.81;;;2.44;76.05
75923;BME280;64602;47.542;19.090;2023-02-12T20:06:29;102401.75;;;2.34;76.17
75923;BME280;64602;47.542;19.090;2023-02-12T20:11:32;102396.13;;;2.28;76.29
75923;BME280;64602;47.542;19.090;2023-02-12T20:16:36;102418.38;;;2.38;76.56
75923;BME280;64602;47.542;19.090;2023-02-12T20:21:40;102395.84;;;2.31;76.13
75923;BME280;64602;47.542;19.090;2023-02-12T20:26:42;102405.47;;;2.51;75.56
75923;BME280;64602;47.542;19.090;2023-02-12T20:31:44;102430.53;;;2.60;75.12
75923;BME280;64602;47.542;19.090;2023-02-12T20:36:47;102432.78;;;2.65;74.58
75923;BME280;64602;47.542;19.090;2023-02-12T20:41:49;102426.47;;;2.56;74.52
75923;BME280;64602;47.542;19.090;2023-02-12T20:46:52;102442.84;;;2.53;74.34
75923;BME280;64602;47.542;19.090;2023-02-12T20:51:58;102457.41;;;2.50;74.16
75923;BME280;64602;47.542;19.090;2023-02-12T20:57:00;102465.25;;;2.52;74.01
75923;BME280;64602;47.542;19.090;2023-02-12T21:02:09;102451.22;;;2.40;73.79
75923;BME280;64602;47.542;19.090;2023-02-12T21:07:12;102448.72;;;2.29;73.82
75923;BME280;64602;47.542;19.090;2023-02-12T21:12:14;102466.47;;;2.30;73.40
75923;BME280;64602;47.542;19.090;2023-02-12T21:17:16;102471.75;;;2.22;73.41
75923;BME280;64602;47.542;19.090;2023-02-12T21:22:20;102454.00;;;2.01;73.65
75923;BME280;64602;47.542;19.090;2023-02-12T21:27:23;102459.66;;;1.98;73.70
75923;BME280;64602;47.542;19.090;2023-02-12T21:32:25;102450.50;;;2.01;73.84
75923;BME280;64602;47.542;19.090;2023-02-12T21:37:27;102446.87;;;1.92;73.93
75923;BME280;64602;47.542;19.090;2023-02-12T21:42:29;102443.63;;;1.88;74.08
